createdAt,value
2023-05-08T00:00:18.911Z,76.75
2023-05-08T00:02:51.656Z,76.62
2023-05-08T00:05:20.231Z,76.09
2023-05-08T00:07:48.465Z,76.53
2023-05-08T00:10:16.673Z,76.33
2023-05-08T00:12:46.219Z,76.20
2023-05-08T00:15:14.380Z,76.39
2023-05-08T00:17:48.144Z,76.26
2023-05-08T00:20:16.463Z,76.23
2023-05-08T00:22:50.276Z,76.26
2023-05-08T00:25:18.751Z,76.60
2023-05-08T00:27:48.312Z,76.53
2023-05-08T00:30:18.540Z,76.03
2023-05-08T00:32:47.065Z,76.25
2023-05-08T00:35:15.488Z,76.44
2023-05-08T00:37:43.819Z,76.32
2023-05-08T00:40:13.278Z,76.12
2023-05-08T00:42:41.734Z,76.27
2023-05-08T00:45:14.624Z,76.52
2023-05-08T00:47:43.456Z,76.59
2023-05-08T00:50:12.966Z,76.91
2023-05-08T00:52:44.069Z,77.22
2023-05-08T00:55:12.356Z,77.63
2023-05-08T00:57:44.269Z,77.68
2023-05-08T01:00:19.431Z,77.64
2023-05-08T01:02:48.495Z,77.38
2023-05-08T01:05:16.763Z,77.51
2023-05-08T01:07:45.214Z,77.33
2023-05-08T01:10:13.574Z,77.15
2023-05-08T01:13:06.398Z,77.16
2023-05-08T01:15:44.878Z,77.11
2023-05-08T01:18:21.195Z,77.19
2023-05-08T01:21:14.575Z,77.33
2023-05-08T01:24:37.704Z,77.72
2023-05-08T01:27:54.609Z,77.30
2023-05-08T01:31:02.869Z,77.54
2023-05-08T01:33:37.898Z,77.13
2023-05-08T01:36:22.227Z,76.78
2023-05-08T01:39:05.279Z,76.71
2023-05-08T01:41:42.242Z,76.73
2023-05-08T01:44:17.916Z,77.14
2023-05-08T01:46:51.300Z,77.35
2023-05-08T01:49:31.700Z,77.42
2023-05-08T01:52:04.688Z,77.37
2023-05-08T01:54:43.993Z,77.64
2023-05-08T01:57:13.616Z,77.45
2023-05-08T01:59:44.100Z,78.05
2023-05-08T02:02:13.263Z,77.85
2023-05-08T02:04:45.529Z,78.06
2023-05-08T02:07:13.988Z,78.08
2023-05-08T02:09:44.029Z,78.32
2023-05-08T02:12:14.434Z,78.39
2023-05-08T02:14:45.976Z,77.97
2023-05-08T02:17:17.731Z,77.64
2023-05-08T02:19:49.012Z,77.40
2023-05-08T02:22:19.633Z,77.21
2023-05-08T02:24:48.177Z,77.47
2023-05-08T02:27:17.590Z,77.66
2023-05-08T02:29:46.136Z,77.82
2023-05-08T02:32:17.280Z,77.97
2023-05-08T02:35:01.889Z,77.70
2023-05-08T02:37:32.181Z,77.84
2023-05-08T02:40:00.830Z,77.38
2023-05-08T02:42:29.124Z,77.89
2023-05-08T02:44:57.502Z,77.80
2023-05-08T02:47:31.087Z,78.13
2023-05-08T02:50:05.981Z,78.16
2023-05-08T02:52:44.147Z,78.08
2023-05-08T02:55:24.214Z,78.33
2023-05-08T02:58:04.095Z,78.26
2023-05-08T03:00:38.957Z,78.84
2023-05-08T03:03:16.576Z,78.47
2023-05-08T03:05:52.634Z,78.15
2023-05-08T03:08:27.147Z,79.22
2023-05-08T03:11:00.941Z,79.73
2023-05-08T03:13:33.307Z,79.22
2023-05-08T03:16:04.632Z,78.71
2023-05-08T03:18:37.138Z,79.37
2023-05-08T03:21:09.239Z,79.29
2023-05-08T03:23:40.407Z,79.49
2023-05-08T03:26:09.789Z,79.63
2023-05-08T03:28:39.482Z,79.43
2023-05-08T03:31:08.363Z,78.77
2023-05-08T03:33:39.844Z,79.39
2023-05-08T03:36:10.315Z,80.33
2023-05-08T03:38:38.592Z,80.42
2023-05-08T03:41:08.818Z,80.76
2023-05-08T03:43:38.989Z,81.28
2023-05-08T03:46:08.071Z,81.15
2023-05-08T03:48:36.996Z,80.53
2023-05-08T03:51:06.516Z,80.27
2023-05-08T03:53:38.588Z,80.09
2023-05-08T03:56:07.173Z,79.71
2023-05-08T03:58:42.700Z,79.40
2023-05-08T04:01:29.709Z,79.15
2023-05-08T04:04:08.113Z,79.09
2023-05-08T04:06:50.097Z,78.78
2023-05-08T04:09:35.598Z,78.44
2023-05-08T04:12:13.836Z,78.50
2023-05-08T04:14:49.574Z,78.25
2023-05-08T04:17:29.046Z,78.02
2023-05-08T04:20:06.017Z,78.01
2023-05-08T04:22:36.516Z,77.88
2023-05-08T04:25:10.287Z,77.75
2023-05-08T04:27:39.425Z,77.85
2023-05-08T04:30:10.871Z,77.49
2023-05-08T04:32:43.428Z,77.66
2023-05-08T04:35:14.469Z,79.08
2023-05-08T04:37:43.933Z,79.68
2023-05-08T04:40:14.559Z,79.29
2023-05-08T04:42:47.185Z,79.14
2023-05-08T04:45:20.218Z,78.67
2023-05-08T04:47:48.474Z,78.32
2023-05-08T04:50:17.353Z,78.15
2023-05-08T04:52:45.516Z,78.08
2023-05-08T04:55:15.148Z,77.94
2023-05-08T04:57:44.531Z,77.85
2023-05-08T05:00:15.012Z,77.84
2023-05-08T05:02:44.740Z,77.70
2023-05-08T05:05:13.348Z,77.30
2023-05-08T05:07:42.503Z,77.20
2023-05-08T05:10:11.973Z,77.20
2023-05-08T05:12:41.550Z,76.89
2023-05-08T05:15:11.680Z,76.86
2023-05-08T05:17:41.029Z,76.71
2023-05-08T05:20:12.264Z,76.58
2023-05-08T05:22:40.747Z,76.41
2023-05-08T05:25:11.179Z,76.57
2023-05-08T05:27:41.452Z,76.35
2023-05-08T05:30:10.939Z,76.51
2023-05-08T05:32:39.520Z,76.47
2023-05-08T05:35:12.115Z,76.58
2023-05-08T05:37:41.308Z,76.47
2023-05-08T05:40:13.414Z,76.44
2023-05-08T05:42:44.343Z,76.62
2023-05-08T05:45:13.435Z,76.63
2023-05-08T05:47:50.506Z,76.52
2023-05-08T05:50:22.561Z,76.47
2023-05-08T05:52:51.078Z,76.22
2023-05-08T05:55:19.432Z,76.32
2023-05-08T05:57:50.006Z,75.96
2023-05-08T06:00:19.516Z,75.84
2023-05-08T06:02:54.704Z,76.05
2023-05-08T06:05:23.160Z,75.72
2023-05-08T06:07:51.413Z,75.77
2023-05-08T06:10:20.007Z,75.83
2023-05-08T06:12:49.579Z,75.90
2023-05-08T06:15:18.494Z,76.03
2023-05-08T06:17:48.123Z,76.41
2023-05-08T06:20:16.480Z,76.62
2023-05-08T06:22:44.716Z,76.43
2023-05-08T06:25:13.154Z,76.30
2023-05-08T06:27:41.494Z,75.95
2023-05-08T06:30:12.754Z,75.71
2023-05-08T06:32:41.072Z,75.68
2023-05-08T06:35:12.302Z,75.64
2023-05-08T06:37:40.695Z,75.81
2023-05-08T06:40:12.529Z,75.73
2023-05-08T06:42:42.085Z,75.44
2023-05-08T06:45:12.576Z,75.49
2023-05-08T06:47:41.226Z,75.50
2023-05-08T06:50:10.614Z,75.05
2023-05-08T06:52:40.781Z,74.46
2023-05-08T06:55:09.980Z,73.34
2023-05-08T06:57:43.389Z,73.32
2023-05-08T07:00:15.002Z,73.04
2023-05-08T07:02:43.263Z,72.72
2023-05-08T07:05:11.853Z,72.05
2023-05-08T07:07:40.248Z,71.55
2023-05-08T07:10:09.597Z,72.42
2023-05-08T07:12:38.112Z,71.86
2023-05-08T07:15:17.789Z,72.07
2023-05-08T07:17:54.920Z,71.97
2023-05-08T07:20:24.425Z,72.41
2023-05-08T07:22:52.863Z,72.15
2023-05-08T07:25:21.025Z,71.92
2023-05-08T07:27:49.430Z,71.54
2023-05-08T07:30:17.885Z,70.45
2023-05-08T07:32:46.127Z,70.35
2023-05-08T07:35:15.839Z,71.22
2023-05-08T07:37:44.679Z,70.42
2023-05-08T07:40:13.279Z,69.33
2023-05-08T07:42:42.783Z,69.34
2023-05-08T07:45:13.992Z,68.77
2023-05-08T07:47:51.409Z,68.79
2023-05-08T07:50:22.276Z,68.32
2023-05-08T07:52:50.995Z,66.28
2023-05-08T07:55:22.599Z,65.36
2023-05-08T07:57:50.912Z,64.68
2023-05-08T08:00:22.800Z,64.45
2023-05-08T08:02:53.215Z,64.30
2023-05-08T08:05:23.187Z,63.71
2023-05-08T08:07:56.941Z,62.79
2023-05-08T08:10:35.814Z,61.55
2023-05-08T08:13:16.039Z,60.86
2023-05-08T08:15:44.270Z,60.54
2023-05-08T08:18:13.033Z,61.21
2023-05-08T08:20:42.710Z,60.52
2023-05-08T08:23:10.933Z,60.15
2023-05-08T08:25:42.494Z,61.10
2023-05-08T08:28:16.302Z,61.51
2023-05-08T08:30:44.461Z,60.77
2023-05-08T08:33:12.783Z,59.85
2023-05-08T08:35:45.139Z,59.43
2023-05-08T08:38:13.516Z,58.65
2023-05-08T08:40:41.895Z,57.73
2023-05-08T08:43:10.943Z,57.74
2023-05-08T08:45:39.614Z,57.91
2023-05-08T08:48:12.643Z,57.62
2023-05-08T08:50:47.255Z,57.76
2023-05-08T08:53:25.586Z,57.95
2023-05-08T08:55:57.057Z,58.95
2023-05-08T08:58:36.526Z,58.45
2023-05-08T09:01:08.957Z,58.89
2023-05-08T09:03:37.393Z,57.02
2023-05-08T09:06:07.764Z,58.86
2023-05-08T09:08:36.366Z,59.63
2023-05-08T09:11:06.924Z,58.86
2023-05-08T09:13:35.293Z,57.84
2023-05-08T09:16:03.881Z,59.12
2023-05-08T09:18:32.323Z,58.46
2023-05-08T09:21:01.821Z,58.87
2023-05-08T09:23:31.569Z,58.53
2023-05-08T09:26:01.758Z,58.56
2023-05-08T09:28:36.078Z,58.90
2023-05-08T09:31:10.100Z,58.36
2023-05-08T09:33:49.254Z,57.44
2023-05-08T09:36:29.408Z,57.27
2023-05-08T09:39:02.766Z,55.63
2023-05-08T09:41:35.488Z,55.75
2023-05-08T09:44:07.029Z,55.18
2023-05-08T09:46:36.163Z,55.68
2023-05-08T09:49:07.764Z,54.65
2023-05-08T09:51:37.669Z,55.53
2023-05-08T09:54:25.386Z,54.43
2023-05-08T09:56:54.471Z,55.04
2023-05-08T09:59:30.839Z,55.03
2023-05-08T10:02:11.021Z,53.76
2023-05-08T10:04:42.305Z,54.61
2023-05-08T10:07:10.466Z,56.08
2023-05-08T10:09:50.319Z,56.25
2023-05-08T10:12:22.253Z,55.86
2023-05-08T10:14:50.774Z,57.53
2023-05-08T10:17:31.536Z,55.64
2023-05-08T10:20:04.904Z,54.80
2023-05-08T10:22:37.976Z,54.69
2023-05-08T10:25:17.228Z,54.83
2023-05-08T10:27:54.921Z,55.27
2023-05-08T10:30:28.221Z,54.08
2023-05-08T10:32:59.348Z,55.54
2023-05-08T10:35:28.361Z,54.08
2023-05-08T10:37:58.230Z,52.18
2023-05-08T10:40:28.022Z,52.76
2023-05-08T10:42:58.524Z,52.96
2023-05-08T10:45:29.773Z,52.10
2023-05-08T10:48:09.775Z,52.39
2023-05-08T10:50:56.471Z,52.31
2023-05-08T10:53:37.853Z,52.20
2023-05-08T10:56:09.493Z,52.48
2023-05-08T10:58:39.492Z,51.61
2023-05-08T11:01:20.178Z,51.34
2023-05-08T11:03:51.974Z,51.58
2023-05-08T11:06:45.969Z,48.77
2023-05-08T11:09:25.377Z,49.95
2023-05-08T11:12:09.228Z,50.05
2023-05-08T11:14:43.493Z,49.77
2023-05-08T11:17:13.804Z,49.96
2023-05-08T11:20:02.235Z,51.68
2023-05-08T11:22:33.214Z,50.99
2023-05-08T11:25:05.410Z,51.31
2023-05-08T11:27:41.522Z,50.79
2023-05-08T11:30:35.913Z,51.36
2023-05-08T11:33:30.710Z,51.09
2023-05-08T11:36:02.530Z,50.23
2023-05-08T11:38:38.145Z,50.27
2023-05-08T11:41:08.730Z,50.48
2023-05-08T11:44:20.953Z,51.07
2023-05-08T11:46:53.684Z,53.71
2023-05-08T11:49:27.127Z,55.10
2023-05-08T11:52:00.803Z,55.48
2023-05-08T11:54:33.658Z,55.77
2023-05-08T11:57:02.858Z,56.69
2023-05-08T11:59:37.719Z,55.39
2023-05-08T12:02:09.196Z,55.78
2023-05-08T12:04:50.986Z,54.30
2023-05-08T12:07:20.628Z,54.85
2023-05-08T12:09:53.526Z,55.10
2023-05-08T12:12:26.572Z,51.96
2023-05-08T12:14:56.393Z,51.59
2023-05-08T12:17:24.879Z,53.82
2023-05-08T12:19:56.628Z,50.88
2023-05-08T12:22:26.388Z,52.72
2023-05-08T12:24:55.835Z,50.87
2023-05-08T12:27:26.445Z,48.66
2023-05-08T12:29:56.043Z,48.62
2023-05-08T12:32:24.929Z,48.09
2023-05-08T12:34:56.684Z,48.95
2023-05-08T12:37:27.980Z,49.77
2023-05-08T12:39:56.488Z,49.75
2023-05-08T12:42:40.709Z,50.49
2023-05-08T12:45:20.787Z,50.92
2023-05-08T12:47:50.663Z,50.85
2023-05-08T12:50:25.225Z,49.64
2023-05-08T12:52:54.344Z,49.97
2023-05-08T12:55:27.311Z,50.10
2023-05-08T12:58:04.326Z,50.29
2023-05-08T13:00:39.324Z,50.36
2023-05-08T13:03:09.102Z,51.87
2023-05-08T13:05:39.660Z,53.62
2023-05-08T13:08:10.859Z,54.40
2023-05-08T13:10:50.149Z,55.65
2023-05-08T13:13:20.789Z,56.49
2023-05-08T13:15:52.120Z,57.64
2023-05-08T13:18:22.570Z,58.89
2023-05-08T13:20:50.820Z,57.90
2023-05-08T13:23:18.995Z,58.32
2023-05-08T13:25:47.311Z,59.11
2023-05-08T13:28:15.866Z,57.29
2023-05-08T13:30:45.156Z,58.13
2023-05-08T13:33:14.737Z,56.85
2023-05-08T13:35:44.863Z,56.78
2023-05-08T13:38:13.175Z,55.85
2023-05-08T13:40:41.565Z,55.58
2023-05-08T13:43:09.841Z,54.16
2023-05-08T13:45:40.916Z,53.42
2023-05-08T13:48:09.219Z,54.96
2023-05-08T13:50:42.062Z,52.78
2023-05-08T13:53:11.413Z,52.90
2023-05-08T13:55:39.872Z,52.95
2023-05-08T13:58:08.187Z,54.52
2023-05-08T14:00:36.532Z,51.64
2023-05-08T14:03:08.914Z,51.03
2023-05-08T14:05:38.570Z,50.35
2023-05-08T14:08:06.769Z,51.35
2023-05-08T14:10:35.018Z,51.19
2023-05-08T14:13:03.280Z,51.98
2023-05-08T14:15:37.092Z,52.21
2023-05-08T14:18:06.432Z,52.34
2023-05-08T14:20:34.670Z,53.20
2023-05-08T14:23:04.260Z,53.64
2023-05-08T14:25:32.417Z,53.01
2023-05-08T14:28:00.661Z,52.49
2023-05-08T14:30:30.896Z,52.31
2023-05-08T14:33:02.123Z,53.07
2023-05-08T14:35:30.404Z,52.35
2023-05-08T14:37:58.831Z,53.51
2023-05-08T14:40:31.485Z,52.75
2023-05-08T14:42:59.750Z,52.46
2023-05-08T14:45:27.997Z,54.76
2023-05-08T14:47:56.179Z,54.76
2023-05-08T14:50:24.679Z,54.19
2023-05-08T14:52:52.906Z,53.85
2023-05-08T14:55:22.087Z,54.33
2023-05-08T14:57:52.817Z,55.74
2023-05-08T15:00:21.535Z,56.06
2023-05-08T15:02:54.341Z,56.28
2023-05-08T15:05:22.849Z,57.15
2023-05-08T15:07:55.815Z,58.35
2023-05-08T15:10:24.321Z,58.47
2023-05-08T15:12:54.041Z,58.48
2023-05-08T15:15:22.481Z,58.69
2023-05-08T15:17:50.713Z,58.76
2023-05-08T15:20:21.279Z,59.55
2023-05-08T15:22:50.806Z,59.19
2023-05-08T15:25:19.407Z,59.20
2023-05-08T15:27:53.806Z,60.43
2023-05-08T15:30:24.965Z,59.98
2023-05-08T15:32:56.336Z,58.78
2023-05-08T15:35:27.343Z,58.75
2023-05-08T15:37:58.634Z,58.55
2023-05-08T15:40:26.847Z,58.76
2023-05-08T15:42:55.113Z,59.53
2023-05-08T15:45:25.095Z,60.31
2023-05-08T15:47:53.293Z,60.28
2023-05-08T15:50:22.289Z,60.54
2023-05-08T15:52:55.569Z,60.96
2023-05-08T15:55:23.957Z,62.09
2023-05-08T15:57:56.622Z,62.69
2023-05-08T16:00:43.972Z,63.51
2023-05-08T16:03:16.566Z,63.15
2023-05-08T16:05:44.897Z,62.00
2023-05-08T16:08:15.043Z,60.85
2023-05-08T16:10:43.724Z,59.53
2023-05-08T16:13:24.073Z,58.15
2023-05-08T16:15:56.636Z,58.17
2023-05-08T16:18:29.530Z,58.47
2023-05-08T16:20:57.929Z,59.53
2023-05-08T16:23:26.404Z,59.85
2023-05-08T16:25:54.821Z,61.19
2023-05-08T16:28:23.008Z,61.46
2023-05-08T16:30:51.265Z,61.31
2023-05-08T16:33:21.339Z,61.81
2023-05-08T16:35:49.713Z,62.51
2023-05-08T16:38:20.470Z,63.26
2023-05-08T16:40:50.655Z,63.25
2023-05-08T16:43:19.016Z,63.32
2023-05-08T16:45:47.359Z,64.23
2023-05-08T16:48:15.527Z,63.74
2023-05-08T16:50:45.127Z,64.40
2023-05-08T16:53:13.336Z,64.29
2023-05-08T16:55:41.625Z,64.02
2023-05-08T16:58:10.205Z,64.90
2023-05-08T17:00:38.676Z,65.73
2023-05-08T17:03:09.867Z,65.97
2023-05-08T17:05:41.027Z,65.18
2023-05-08T17:08:11.828Z,64.80
2023-05-08T17:10:41.372Z,64.19
2023-05-08T17:13:15.572Z,64.10
2023-05-08T17:15:46.907Z,63.71
2023-05-08T17:18:15.192Z,63.65
2023-05-08T17:20:43.419Z,63.05
2023-05-08T17:23:13.156Z,63.17
2023-05-08T17:25:41.423Z,62.30
2023-05-08T17:28:09.610Z,62.77
2023-05-08T17:30:40.294Z,62.63
2023-05-08T17:33:11.336Z,61.85
2023-05-08T17:35:42.183Z,62.16
2023-05-08T17:38:16.985Z,62.54
2023-05-08T17:40:46.654Z,62.43
2023-05-08T17:43:14.904Z,62.27
2023-05-08T17:45:48.318Z,62.66
2023-05-08T17:48:18.948Z,63.31
2023-05-08T17:50:47.159Z,63.47
2023-05-08T17:53:20.055Z,63.40
2023-05-08T17:55:50.868Z,63.57
2023-05-08T17:58:19.047Z,64.19
2023-05-08T18:00:47.186Z,64.44
2023-05-08T18:03:15.862Z,64.39
2023-05-08T18:05:45.936Z,64.77
2023-05-08T18:08:17.408Z,65.05
2023-05-08T18:10:47.548Z,65.31
2023-05-08T18:13:18.268Z,64.92
2023-05-08T18:15:49.625Z,64.82
2023-05-08T18:18:20.542Z,64.50
2023-05-08T18:20:48.730Z,64.67
2023-05-08T18:23:18.361Z,64.20
2023-05-08T18:25:49.582Z,63.79
2023-05-08T18:28:17.848Z,63.63
2023-05-08T18:30:46.146Z,63.94
2023-05-08T18:33:14.430Z,63.44
2023-05-08T18:35:42.539Z,63.22
2023-05-08T18:38:13.814Z,63.43
2023-05-08T18:40:44.839Z,63.27
2023-05-08T18:43:15.937Z,63.62
2023-05-08T18:45:44.127Z,63.73
2023-05-08T18:48:14.579Z,63.55
2023-05-08T18:50:42.783Z,63.53
2023-05-08T18:53:10.971Z,63.69
2023-05-08T18:55:40.709Z,64.02
2023-05-08T18:58:13.629Z,64.64
2023-05-08T19:00:42.131Z,65.38
2023-05-08T19:03:14.969Z,65.61
2023-05-08T19:05:43.310Z,65.83
2023-05-08T19:08:15.749Z,65.85
2023-05-08T19:10:44.045Z,66.08
2023-05-08T19:13:14.423Z,66.23
2023-05-08T19:15:54.145Z,66.37
2023-05-08T19:18:26.970Z,67.47
2023-05-08T19:20:55.191Z,67.13
2023-05-08T19:23:23.646Z,67.47
2023-05-08T19:25:52.879Z,68.05
2023-05-08T19:28:27.774Z,67.85
2023-05-08T19:30:55.977Z,67.69
2023-05-08T19:33:24.348Z,68.20
2023-05-08T19:35:52.513Z,67.86
2023-05-08T19:38:23.652Z,67.62
2023-05-08T19:40:56.296Z,67.47
2023-05-08T19:43:27.486Z,68.36
2023-05-08T19:45:56.844Z,67.83
2023-05-08T19:48:25.295Z,68.18
2023-05-08T19:51:00.301Z,68.75
2023-05-08T19:53:31.384Z,69.01
2023-05-08T19:55:59.632Z,68.85
2023-05-08T19:58:29.219Z,68.73
2023-05-08T20:00:57.450Z,68.66
2023-05-08T20:03:25.812Z,68.24
2023-05-08T20:05:54.909Z,68.88
2023-05-08T20:08:23.150Z,69.02
2023-05-08T20:10:51.519Z,68.65
2023-05-08T20:13:19.916Z,68.31
2023-05-08T20:15:54.081Z,68.33
2023-05-08T20:18:24.383Z,68.07
2023-05-08T20:20:52.588Z,68.03
2023-05-08T20:23:20.762Z,68.08
2023-05-08T20:25:48.984Z,67.85
2023-05-08T20:28:22.268Z,67.81
2023-05-08T20:30:52.753Z,68.16
2023-05-08T20:33:22.377Z,68.28
2023-05-08T20:35:56.619Z,68.20
2023-05-08T20:38:24.876Z,68.71
2023-05-08T20:41:00.128Z,68.58
2023-05-08T20:43:29.338Z,68.99
2023-05-08T20:45:59.102Z,68.87
2023-05-08T20:48:27.550Z,69.44
2023-05-08T20:50:57.620Z,69.37
2023-05-08T20:53:32.045Z,68.96
2023-05-08T20:56:18.642Z,68.92
2023-05-08T20:58:49.945Z,69.06
2023-05-08T21:01:23.132Z,68.69
2023-05-08T21:03:51.420Z,68.57
2023-05-08T21:06:22.444Z,68.25
2023-05-08T21:08:57.829Z,68.16
2023-05-08T21:11:27.837Z,68.45
2023-05-08T21:13:57.846Z,68.39
2023-05-08T21:16:28.966Z,68.19
2023-05-08T21:19:09.841Z,68.37
2023-05-08T21:21:39.021Z,68.50
2023-05-08T21:24:09.857Z,68.44
2023-05-08T21:26:38.031Z,69.15
2023-05-08T21:29:06.397Z,68.95
2023-05-08T21:31:36.371Z,68.80
2023-05-08T21:34:15.035Z,68.59
2023-05-08T21:36:43.443Z,68.97
2023-05-08T21:39:11.611Z,68.85
2023-05-08T21:41:39.797Z,68.84
2023-05-08T21:44:08.796Z,68.53
2023-05-08T21:46:39.903Z,68.64
2023-05-08T21:49:08.352Z,68.46
2023-05-08T21:51:41.840Z,68.57
2023-05-08T21:54:14.162Z,68.81
2023-05-08T21:56:42.380Z,69.01
2023-05-08T21:59:10.562Z,69.01
2023-05-08T22:01:44.841Z,69.27
2023-05-08T22:04:13.055Z,69.53
2023-05-08T22:06:49.059Z,69.58
2023-05-08T22:09:18.828Z,69.72
2023-05-08T22:11:47.012Z,69.88
2023-05-08T22:14:23.990Z,69.67
2023-05-08T22:16:59.075Z,69.91
2023-05-08T22:19:30.057Z,69.84
2023-05-08T22:21:59.587Z,70.02
2023-05-08T22:24:28.146Z,70.27
2023-05-08T22:26:56.345Z,69.98
2023-05-08T22:29:27.911Z,69.95
2023-05-08T22:32:00.282Z,69.75
2023-05-08T22:34:28.465Z,69.71
2023-05-08T22:36:58.928Z,70.05
2023-05-08T22:39:29.700Z,70.24
2023-05-08T22:42:00.355Z,70.42
2023-05-08T22:44:31.706Z,70.82
2023-05-08T22:47:04.404Z,70.93
2023-05-08T22:49:35.300Z,71.10
2023-05-08T22:52:08.288Z,70.99
2023-05-08T22:54:36.779Z,70.97
2023-05-08T22:57:05.196Z,71.25
2023-05-08T22:59:38.582Z,71.07
2023-05-08T23:02:09.760Z,71.23
2023-05-08T23:04:37.975Z,71.27
2023-05-08T23:07:06.934Z,71.51
2023-05-08T23:09:37.657Z,71.30
2023-05-08T23:12:11.367Z,71.47
2023-05-08T23:14:39.487Z,71.43
2023-05-08T23:17:15.115Z,71.40
2023-05-08T23:19:44.819Z,71.50
2023-05-08T23:22:13.097Z,71.52
2023-05-08T23:24:46.283Z,71.52
2023-05-08T23:27:17.204Z,71.59
2023-05-08T23:29:47.228Z,71.80
2023-05-08T23:32:24.741Z,71.66
2023-05-08T23:34:52.994Z,71.61
2023-05-08T23:37:25.926Z,71.83
2023-05-08T23:39:56.493Z,72.17
2023-05-08T23:42:24.654Z,72.22
2023-05-08T23:44:59.344Z,72.10
2023-05-08T23:47:29.993Z,72.42
2023-05-08T23:50:00.219Z,72.66
2023-05-08T23:52:31.416Z,72.51
2023-05-08T23:55:04.857Z,72.35
2023-05-08T23:57:36.059Z,72.23
